ADDS METAR Data INFO
IDs: Format: Raw Decoded Include TAF

Data at: 1342 UTC 25 Feb 2018

KGIF 251253Z AUTO 11004KT 10SM CLR 20/19 A3021 RMK AO2 SLP226 T02000194
KGIF 251153Z AUTO 07004KT 9SM FEW085 18/18 A3019 RMK AO2 SLP221 T01830178 10206 20178 53007
KGIF 251053Z AUTO 00000KT 10SM CLR 19/19 A3017 RMK AO2 SLP215 T01940189
KGIF 250953Z AUTO 12004KT 10SM CLR 19/19 A3016 RMK AO2 SLP212 T01940189
KGIF 250853Z AUTO 15003KT 10SM FEW090 20/19 A3017 RMK AO2 SLP214 T02000189 58008
KGIF 250753Z AUTO 00000KT 10SM CLR 19/18 A3018 RMK AO2 SLP218 T01940183
KGIF 250653Z AUTO 11003KT 10SM BKN090 21/19 A3020 RMK AO2 SLP223 T02060189
KGIF 250553Z AUTO 12004KT 10SM CLR 21/18 A3019 RMK AO2 SLP222 T02110183 10267 20206 51008
KGIF 250453Z AUTO 10003KT 10SM SCT060 21/18 A3019 RMK AO2 SLP221 T02110183 402940178
KGIF 250353Z AUTO 10004KT 10SM CLR 21/18 A3018 RMK AO2 SLP217 T02110178
KGIF 250253Z AUTO 13006KT 10SM CLR 23/18 A3017 RMK AO2 SLP214 T02280178 51012
KGIF 250153Z AUTO 12012KT 10SM CLR 24/17 A3016 RMK AO2 SLP212 T02390172
KGIF 250053Z AUTO 12010KT 10SM FEW050 25/17 A3015 RMK AO2 SLP208 T02500167
KGIF 242353Z AUTO 12009KT 10SM SCT055 27/17 A3014 RMK AO2 SLP203 T02670167 10294 20267 55001
KGIF 242253Z AUTO 14006KT 10SM CLR 28/14 A3013 RMK AO2 SLP199 T02830139
KGIF 242153Z AUTO 16007KT 10SM CLR 29/14 A3013 RMK AO2 SLP200 T02940144
KGIF 242053Z AUTO VRB03KT 10SM FEW080 29/16 A3014 RMK AO2 SLP203 T02890161 56022
KGIF 241953Z AUTO 21005KT 10SM FEW050 29/17 A3015 RMK AO2 SLP207 T02890167
KGIF 241853Z AUTO 14007KT 10SM FEW065 29/17 A3017 RMK AO2 SLP214 T02890167
KGIF 241753Z AUTO 14007KT 10SM OVC065 28/16 A3020 RMK AO2 SLP225 T02830161 10283 20178 58017
KGIF 241653Z AUTO 14007KT 10SM OVC070 27/17 A3023 RMK AO2 SLP236 T02670167
KGIF 241553Z AUTO 16008KT 10SM OVC080 26/18 A3025 RMK AO2 SLP242 T02610178
KGIF 241453Z AUTO 15009KT 10SM OVC080 24/18 A3025 RMK AO2 SLP242 T02390183 50005
KGIF 241353Z AUTO 12006KT 10SM BKN085 21/19 A3026 RMK AO2 SLP244 T02060194
KGIF 241253Z AUTO 11004KT 10SM CLR 20/19 A3026 RMK AO2 SLP243 T02000194
KGIF 241200Z AUTO 00000KT 4SM BR FEW015 FEW085 18/18 A3024 RMK AO2 T01830178
KGIF 241153Z AUTO 00000KT 2SM BR FEW015 SCT085 18/18 A3024 RMK AO2 VIS 3/4V5 SLP238 T01780178 10206 20178 53003
KGIF 241151Z AUTO 00000KT 2SM BR FEW015 SCT085 18/18 A3024 RMK AO2 VIS 3/4V5
KGIF 241053Z AUTO 03003KT 7SM CLR 19/18 A3024 RMK AO2 SLP236 T01890183
KGIF 240953Z AUTO 00000KT 8SM CLR 19/18 A3023 RMK AO2 SLP234 T01890183
KGIF 240853Z AUTO 07003KT 10SM CLR 19/19 A3023 RMK AO2 SLP235 T01940189 56014
KGIF 240753Z AUTO 12005KT 10SM CLR 20/19 A3024 RMK AO2 SLP238 T02000189
KGIF 240653Z AUTO 10005KT 10SM CLR 20/19 A3026 RMK AO2 SLP243 T02000189
KGIF 240553Z AUTO 12006KT 10SM CLR 21/19 A3028 RMK AO2 SLP250 T02060189 10256 20206 58008
KGIF 240453Z AUTO 11005KT 10SM CLR 21/19 A3029 RMK AO2 SLP253 T02110189 403060189
KGIF 240353Z AUTO 11006KT 10SM CLR 21/18 A3029 RMK AO2 SLP256 T02110183
KGIF 240253Z AUTO 11008KT 10SM CLR 22/18 A3030 RMK AO2 SLP258 T02220178 50006
KGIF 240153Z AUTO 11010KT 10SM CLR 23/18 A3030 RMK AO2 SLP259 T02280178